createdAt,value
2018-03-07T19:26:51.784Z,146.75
2018-03-07T19:29:21.570Z,140.20
2018-03-07T19:31:53.476Z,133.25
2018-03-07T19:34:23.103Z,133.40
2018-03-07T19:36:53.349Z,119.60
2018-03-07T19:39:23.516Z,131.40
2018-03-07T19:41:53.609Z,137.20
2018-03-07T19:44:23.133Z,142.20
2018-03-07T19:46:52.860Z,131.00
2018-03-07T19:49:22.454Z,125.80
2018-03-07T19:51:51.939Z,130.40
2018-03-07T19:54:21.667Z,124.60
2018-03-07T19:56:51.301Z,137.00
2018-03-07T19:59:20.867Z,129.20
2018-03-07T20:01:50.910Z,125.00
2018-03-07T20:04:20.265Z,121.80
2018-03-07T20:06:49.450Z,128.20
2018-03-07T20:09:19.009Z,133.80
2018-03-07T20:11:48.562Z,127.00
2018-03-07T20:14:18.048Z,134.00
2018-03-07T20:16:47.461Z,131.20
2018-03-07T20:19:17.566Z,125.40
2018-03-07T20:21:46.949Z,122.40
2018-03-07T20:24:16.545Z,135.20
2018-03-07T20:26:45.917Z,135.00
2018-03-07T20:29:15.424Z,137.20
2018-03-07T20:31:44.718Z,144.60
2018-03-07T20:34:14.384Z,134.00
2018-03-07T20:36:43.517Z,136.00
2018-03-07T20:39:13.031Z,125.60
2018-03-07T20:41:42.376Z,139.00
2018-03-07T20:44:11.966Z,129.80
2018-03-07T20:46:41.258Z,137.40
2018-03-07T20:49:10.680Z,141.00
2018-03-07T20:51:40.269Z,133.60
2018-03-07T20:54:09.678Z,130.40
2018-03-07T20:56:39.028Z,132.00
2018-03-07T20:59:08.382Z,136.80
2018-03-07T21:01:38.106Z,130.20
2018-03-07T21:04:07.598Z,130.80
2018-03-07T21:06:36.876Z,142.80
2018-03-07T21:09:06.366Z,140.60
2018-03-07T21:11:35.826Z,129.20
2018-03-07T21:14:05.483Z,145.40
2018-03-07T21:16:35.068Z,129.60
2018-03-07T21:19:04.446Z,135.40
2018-03-07T21:21:34.119Z,143.80
2018-03-07T21:24:03.559Z,142.20
2018-03-07T21:26:32.853Z,141.80
2018-03-07T21:29:02.414Z,143.60
2018-03-07T21:31:31.892Z,148.80
2018-03-07T21:34:01.563Z,144.20
2018-03-07T21:36:31.004Z,137.80
2018-03-07T21:39:00.466Z,146.60
2018-03-07T21:41:29.844Z,148.20
2018-03-07T21:43:59.441Z,143.80
2018-03-07T21:46:28.758Z,135.60
2018-03-07T21:48:57.993Z,145.80
2018-03-07T21:51:27.385Z,144.60
2018-03-07T21:53:56.742Z,144.80
2018-03-07T21:56:26.087Z,152.20
2018-03-07T21:58:55.519Z,156.60
2018-03-07T22:01:24.858Z,163.00
2018-03-07T22:03:54.336Z,151.20
2018-03-07T22:06:23.676Z,164.20
2018-03-07T22:08:53.363Z,168.00
2018-03-07T22:11:22.656Z,161.40
2018-03-07T22:13:52.305Z,167.80
2018-03-07T22:16:21.760Z,160.20
2018-03-07T22:18:51.349Z,150.40
2018-03-07T22:21:20.881Z,172.40
2018-03-07T22:23:50.370Z,168.40
2018-03-07T22:26:19.688Z,168.20
2018-03-07T22:28:49.187Z,162.40
2018-03-07T22:31:18.566Z,163.60
2018-03-07T22:33:48.790Z,178.60
2018-03-07T22:36:18.296Z,174.20
2018-03-07T22:38:47.810Z,166.00
2018-03-07T22:41:17.445Z,176.20
2018-03-07T22:43:46.929Z,153.60
2018-03-07T22:46:16.473Z,161.80
2018-03-07T22:48:45.862Z,169.20
2018-03-07T22:51:15.529Z,156.20
2018-03-07T22:53:44.995Z,166.80
2018-03-07T22:56:14.601Z,161.00
2018-03-07T22:58:44.878Z,157.60
2018-03-07T23:01:14.696Z,171.40
2018-03-07T23:03:44.014Z,171.00
2018-03-07T23:06:13.233Z,167.80
2018-03-07T23:08:42.678Z,181.00
2018-03-07T23:11:12.171Z,168.40
2018-03-07T23:13:41.283Z,160.80
2018-03-07T23:16:10.871Z,178.40
2018-03-07T23:18:40.441Z,148.20
2018-03-07T23:21:09.850Z,172.20
2018-03-07T23:23:39.208Z,175.00
2018-03-07T23:26:08.647Z,178.80
2018-03-07T23:28:38.182Z,170.60
2018-03-07T23:31:07.602Z,165.80
2018-03-07T23:33:37.333Z,160.80
2018-03-07T23:36:06.607Z,177.00
2018-03-07T23:38:36.203Z,177.00
2018-03-07T23:41:05.657Z,177.20
2018-03-07T23:43:35.230Z,182.20
2018-03-07T23:46:04.590Z,192.40
2018-03-07T23:48:34.046Z,211.25
2018-03-07T23:51:03.543Z,219.50
2018-03-07T23:53:33.125Z,200.75
2018-03-07T23:56:02.798Z,209.00
2018-03-07T23:58:32.315Z,200.75
